sensor_id;sensor_type;location;lat;lon;timestamp;temperature;humidity
41168;DHT22;26906;45.658;9.272;2023-05-17T10:05:20;18.30;99.90
41168;DHT22;26906;45.658;9.272;2023-05-17T10:07:47;18.30;99.90
41168;DHT22;26906;45.658;9.272;2023-05-17T10:10:15;18.30;99.90
41168;DHT22;26906;45.658;9.272;2023-05-17T10:12:43;18.30;99.90
41168;DHT22;26906;45.658;9.272;2023-05-17T10:15:10;18.50;99.90
41168;DHT22;26906;45.658;9.272;2023-05-17T10:17:36;18.60;99.90
41168;DHT22;26906;45.658;9.272;2023-05-17T10:20:07;18.70;99.90
41168;DHT22;26906;45.658;9.272;2023-05-17T10:22:34;18.90;99.90
41168;DHT22;26906;45.658;9.272;2023-05-17T10:25:00;18.90;99.90
41168;DHT22;26906;45.658;9.272;2023-05-17T10:27:27;19.00;99.90
41168;DHT22;26906;45.658;9.272;2023-05-17T10:29:53;19.10;99.90
41168;DHT22;26906;45.658;9.272;2023-05-17T10:32:20;19.10;99.90
41168;DHT22;26906;45.658;9.272;2023-05-17T10:34:51;18.90;99.90
41168;DHT22;26906;45.658;9.272;2023-05-17T10:37:18;18.90;99.90
41168;DHT22;26906;45.658;9.272;2023-05-17T10:39:44;19.00;99.90
41168;DHT22;26906;45.658;9.272;2023-05-17T10:42:12;19.10;99.90
41168;DHT22;26906;45.658;9.272;2023-05-17T10:44:39;19.20;99.90
41168;DHT22;26906;45.658;9.272;2023-05-17T10:47:05;19.30;99.90
41168;DHT22;26906;45.658;9.272;2023-05-17T10:49:32;19.20;99.90
41168;DHT22;26906;45.658;9.272;2023-05-17T10:52:30;19.40;99.90
41168;DHT22;26906;45.658;9.272;2023-05-17T10:54:58;19.30;99.90
41168;DHT22;26906;45.658;9.272;2023-05-17T10:57:35;19.10;99.90
41168;DHT22;26906;45.658;9.272;2023-05-17T11:00:02;19.00;99.90
41168;DHT22;26906;45.658;9.272;2023-05-17T11:02:30;19.10;99.90
41168;DHT22;26906;45.658;9.272;2023-05-17T11:04:56;19.10;99.90
41168;DHT22;26906;45.658;9.272;2023-05-17T11:07:24;19.10;99.90
41168;DHT22;26906;45.658;9.272;2023-05-17T11:12:38;19.20;99.90
41168;DHT22;26906;45.658;9.272;2023-05-17T11:15:12;19.20;99.90
41168;DHT22;26906;45.658;9.272;2023-05-17T11:22:58;19.20;99.90
41168;DHT22;26906;45.658;9.272;2023-05-17T11:25:30;19.20;99.90
41168;DHT22;26906;45.658;9.272;2023-05-17T11:27:57;19.10;99.90
41168;DHT22;26906;45.658;9.272;2023-05-17T11:30:24;19.10;99.90
41168;DHT22;26906;45.658;9.272;2023-05-17T11:32:59;19.20;99.90
41168;DHT22;26906;45.658;9.272;2023-05-17T11:35:27;19.20;99.90
41168;DHT22;26906;45.658;9.272;2023-05-17T11:38:15;19.10;99.90
41168;DHT22;26906;45.658;9.272;2023-05-17T11:40:42;19.10;99.90
41168;DHT22;26906;45.658;9.272;2023-05-17T11:43:16;18.90;99.90
41168;DHT22;26906;45.658;9.272;2023-05-17T11:46:05;18.60;99.90
41168;DHT22;26906;45.658;9.272;2023-05-17T11:48:32;18.60;99.90
41168;DHT22;26906;45.658;9.272;2023-05-17T11:50:58;18.70;99.90
41168;DHT22;26906;45.658;9.272;2023-05-17T11:53:24;18.70;99.90
41168;DHT22;26906;45.658;9.272;2023-05-17T11:55:55;18.70;99.90
41168;DHT22;26906;45.658;9.272;2023-05-17T11:58:25;18.70;99.90
41168;DHT22;26906;45.658;9.272;2023-05-17T12:00:52;18.70;99.90
41168;DHT22;26906;45.658;9.272;2023-05-17T12:03:19;18.70;99.90
41168;DHT22;26906;45.658;9.272;2023-05-17T12:05:46;18.60;99.90
41168;DHT22;26906;45.658;9.272;2023-05-17T12:08:18;18.60;99.90
41168;DHT22;26906;45.658;9.272;2023-05-17T12:10:46;18.70;99.90
41168;DHT22;26906;45.658;9.272;2023-05-17T12:13:12;18.60;99.90
41168;DHT22;26906;45.658;9.272;2023-05-17T12:15:38;18.50;99.90
41168;DHT22;26906;45.658;9.272;2023-05-17T12:18:07;18.60;99.90
41168;DHT22;26906;45.658;9.272;2023-05-17T12:20:32;18.70;99.90
41168;DHT22;26906;45.658;9.272;2023-05-17T12:22:59;18.60;99.90
41168;DHT22;26906;45.658;9.272;2023-05-17T12:25:25;18.50;99.90
41168;DHT22;26906;45.658;9.272;2023-05-17T12:27:53;18.60;99.90
41168;DHT22;26906;45.658;9.272;2023-05-17T12:30:19;18.70;99.90
41168;DHT22;26906;45.658;9.272;2023-05-17T12:32:45;18.70;99.90
41168;DHT22;26906;45.658;9.272;2023-05-17T12:35:12;18.80;99.90
41168;DHT22;26906;45.658;9.272;2023-05-17T12:37:38;18.70;99.90
41168;DHT22;26906;45.658;9.272;2023-05-17T12:40:04;18.80;99.90
41168;DHT22;26906;45.658;9.272;2023-05-17T12:42:31;18.90;99.90
41168;DHT22;26906;45.658;9.272;2023-05-17T12:45:00;18.90;99.90
41168;DHT22;26906;45.658;9.272;2023-05-17T12:47:31;19.00;99.90
41168;DHT22;26906;45.658;9.272;2023-05-17T12:49:59;19.10;99.90
41168;DHT22;26906;45.658;9.272;2023-05-17T12:52:32;19.00;99.90
41168;DHT22;26906;45.658;9.272;2023-05-17T12:55:02;19.00;99.90
41168;DHT22;26906;45.658;9.272;2023-05-17T12:57:27;18.80;99.90
41168;DHT22;26906;45.658;9.272;2023-05-17T12:59:53;18.80;99.90
41168;DHT22;26906;45.658;9.272;2023-05-17T13:02:19;18.90;99.90
41168;DHT22;26906;45.658;9.272;2023-05-17T13:04:45;18.90;99.90
41168;DHT22;26906;45.658;9.272;2023-05-17T13:07:11;19.00;99.90
41168;DHT22;26906;45.658;9.272;2023-05-17T13:09:46;19.10;99.90
41168;DHT22;26906;45.658;9.272;2023-05-17T13:12:21;19.20;99.90
41168;DHT22;26906;45.658;9.272;2023-05-17T13:14:49;19.30;99.90
41168;DHT22;26906;45.658;9.272;2023-05-17T13:17:25;19.50;99.90
41168;DHT22;26906;45.658;9.272;2023-05-17T13:19:54;19.60;99.90
41168;DHT22;26906;45.658;9.272;2023-05-17T13:22:21;19.70;99.90
41168;DHT22;26906;45.658;9.272;2023-05-17T13:24:49;19.60;99.90
41168;DHT22;26906;45.658;9.272;2023-05-17T13:27:15;19.80;99.90
41168;DHT22;26906;45.658;9.272;2023-05-17T13:29:42;19.80;99.90
41168;DHT22;26906;45.658;9.272;2023-05-17T13:32:09;19.90;99.90
41168;DHT22;26906;45.658;9.272;2023-05-17T13:34:36;19.90;99.90
41168;DHT22;26906;45.658;9.272;2023-05-17T13:37:02;20.00;99.90
41168;DHT22;26906;45.658;9.272;2023-05-17T13:39:28;20.20;99.90
41168;DHT22;26906;45.658;9.272;2023-05-17T13:41:53;20.30;99.90
41168;DHT22;26906;45.658;9.272;2023-05-17T13:44:19;20.30;99.90
41168;DHT22;26906;45.658;9.272;2023-05-17T13:46:45;20.30;99.90
41168;DHT22;26906;45.658;9.272;2023-05-17T13:49:11;20.40;99.90
41168;DHT22;26906;45.658;9.272;2023-05-17T13:51:37;20.50;99.90
41168;DHT22;26906;45.658;9.272;2023-05-17T13:54:05;20.50;99.90
41168;DHT22;26906;45.658;9.272;2023-05-17T13:56:30;20.50;99.90
41168;DHT22;26906;45.658;9.272;2023-05-17T13:58:56;20.50;99.90
41168;DHT22;26906;45.658;9.272;2023-05-17T14:01:22;20.60;99.90
41168;DHT22;26906;45.658;9.272;2023-05-17T14:03:47;20.70;99.90
41168;DHT22;26906;45.658;9.272;2023-05-17T14:06:13;20.80;99.90
41168;DHT22;26906;45.658;9.272;2023-05-17T14:08:39;20.80;99.90
41168;DHT22;26906;45.658;9.272;2023-05-17T14:11:04;20.70;99.90
41168;DHT22;26906;45.658;9.272;2023-05-17T14:13:30;20.70;99.90
41168;DHT22;26906;45.658;9.272;2023-05-17T14:15:56;20.80;99.90
41168;DHT22;26906;45.658;9.272;2023-05-17T14:18:23;20.90;99.90
41168;DHT22;26906;45.658;9.272;2023-05-17T14:20:49;20.80;99.90
41168;DHT22;26906;45.658;9.272;2023-05-17T14:23:15;20.90;99.90
41168;DHT22;26906;45.658;9.272;2023-05-17T14:25:41;21.00;99.90
41168;DHT22;26906;45.658;9.272;2023-05-17T14:28:08;21.10;99.90
41168;DHT22;26906;45.658;9.272;2023-05-17T14:30:34;21.10;99.90
41168;DHT22;26906;45.658;9.272;2023-05-17T14:32:59;21.00;99.90
41168;DHT22;26906;45.658;9.272;2023-05-17T14:35:25;21.00;99.90
41168;DHT22;26906;45.658;9.272;2023-05-17T14:37:51;21.10;99.90
41168;DHT22;26906;45.658;9.272;2023-05-17T14:40:17;21.10;99.90
41168;DHT22;26906;45.658;9.272;2023-05-17T14:42:42;21.10;99.90
41168;DHT22;26906;45.658;9.272;2023-05-17T14:45:08;21.20;99.90
41168;DHT22;26906;45.658;9.272;2023-05-17T14:47:34;21.30;99.90
41168;DHT22;26906;45.658;9.272;2023-05-17T14:50:00;21.40;99.90
41168;DHT22;26906;45.658;9.272;2023-05-17T14:52:25;21.40;99.90
41168;DHT22;26906;45.658;9.272;2023-05-17T14:54:51;21.30;99.90
41168;DHT22;26906;45.658;9.272;2023-05-17T14:57:17;21.20;99.90
41168;DHT22;26906;45.658;9.272;2023-05-17T14:59:45;21.20;99.90
41168;DHT22;26906;45.658;9.272;2023-05-17T15:02:11;21.30;99.90
41168;DHT22;26906;45.658;9.272;2023-05-17T15:04:36;21.20;99.90
41168;DHT22;26906;45.658;9.272;2023-05-17T15:07:02;21.20;99.90
41168;DHT22;26906;45.658;9.272;2023-05-17T15:09:28;21.10;99.90
41168;DHT22;26906;45.658;9.272;2023-05-17T15:11:55;21.20;99.90
41168;DHT22;26906;45.658;9.272;2023-05-17T15:14:21;21.20;99.90
41168;DHT22;26906;45.658;9.272;2023-05-17T15:16:50;21.20;99.90
41168;DHT22;26906;45.658;9.272;2023-05-17T15:19:16;21.10;99.90
41168;DHT22;26906;45.658;9.272;2023-05-17T15:21:42;21.10;99.90
41168;DHT22;26906;45.658;9.272;2023-05-17T15:24:09;21.10;99.90
41168;DHT22;26906;45.658;9.272;2023-05-17T15:26:35;20.90;99.90
41168;DHT22;26906;45.658;9.272;2023-05-17T15:29:01;20.90;99.90
41168;DHT22;26906;45.658;9.272;2023-05-17T15:31:27;20.80;99.90
41168;DHT22;26906;45.658;9.272;2023-05-17T15:33:55;20.80;99.90
41168;DHT22;26906;45.658;9.272;2023-05-17T15:36:22;20.80;99.90
41168;DHT22;26906;45.658;9.272;2023-05-17T15:38:47;20.80;99.90
41168;DHT22;26906;45.658;9.272;2023-05-17T15:41:14;20.80;99.90
41168;DHT22;26906;45.658;9.272;2023-05-17T15:43:41;20.80;99.90
41168;DHT22;26906;45.658;9.272;2023-05-17T15:46:07;20.70;99.90
41168;DHT22;26906;45.658;9.272;2023-05-17T15:48:33;20.70;99.90
41168;DHT22;26906;45.658;9.272;2023-05-17T15:51:00;20.80;99.90
41168;DHT22;26906;45.658;9.272;2023-05-17T15:53:27;20.70;99.90
41168;DHT22;26906;45.658;9.272;2023-05-17T15:55:53;20.70;99.90
41168;DHT22;26906;45.658;9.272;2023-05-17T15:58:25;20.70;99.90
41168;DHT22;26906;45.658;9.272;2023-05-17T16:01:02;20.70;99.90
41168;DHT22;26906;45.658;9.272;2023-05-17T16:03:28;20.60;99.90
41168;DHT22;26906;45.658;9.272;2023-05-17T16:05:54;20.60;99.90
41168;DHT22;26906;45.658;9.272;2023-05-17T16:08:20;20.70;99.90
41168;DHT22;26906;45.658;9.272;2023-05-17T16:10:46;20.70;99.90
41168;DHT22;26906;45.658;9.272;2023-05-17T16:13:12;20.60;99.90
41168;DHT22;26906;45.658;9.272;2023-05-17T16:15:38;20.60;99.90
41168;DHT22;26906;45.658;9.272;2023-05-17T16:18:03;20.60;99.90
41168;DHT22;26906;45.658;9.272;2023-05-17T16:20:29;20.50;99.90
41168;DHT22;26906;45.658;9.272;2023-05-17T16:22:55;20.50;99.90
41168;DHT22;26906;45.658;9.272;2023-05-17T16:25:23;20.50;99.90
41168;DHT22;26906;45.658;9.272;2023-05-17T16:27:49;20.50;99.90
41168;DHT22;26906;45.658;9.272;2023-05-17T16:30:16;20.50;99.90
41168;DHT22;26906;45.658;9.272;2023-05-17T16:32:42;20.50;99.90
41168;DHT22;26906;45.658;9.272;2023-05-17T16:35:08;20.40;99.90
41168;DHT22;26906;45.658;9.272;2023-05-17T16:37:34;20.40;99.90
41168;DHT22;26906;45.658;9.272;2023-05-17T16:40:01;20.40;99.90
41168;DHT22;26906;45.658;9.272;2023-05-17T16:42:27;20.40;99.90
41168;DHT22;26906;45.658;9.272;2023-05-17T16:44:53;20.30;99.90
41168;DHT22;26906;45.658;9.272;2023-05-17T16:47:19;20.20;99.90
41168;DHT22;26906;45.658;9.272;2023-05-17T16:49:48;20.20;99.90
41168;DHT22;26906;45.658;9.272;2023-05-17T16:52:13;20.30;99.90
41168;DHT22;26906;45.658;9.272;2023-05-17T16:54:39;20.30;99.90
41168;DHT22;26906;45.658;9.272;2023-05-17T16:57:05;20.20;99.90
41168;DHT22;26906;45.658;9.272;2023-05-17T16:59:32;20.20;99.90
41168;DHT22;26906;45.658;9.272;2023-05-17T17:01:58;20.30;99.90
41168;DHT22;26906;45.658;9.272;2023-05-17T17:04:23;20.30;99.90
41168;DHT22;26906;45.658;9.272;2023-05-17T17:06:51;20.30;99.90
41168;DHT22;26906;45.658;9.272;2023-05-17T17:09:17;20.40;99.90
41168;DHT22;26906;45.658;9.272;2023-05-17T17:11:46;20.40;99.90
41168;DHT22;26906;45.658;9.272;2023-05-17T17:14:13;20.30;99.90
41168;DHT22;26906;45.658;9.272;2023-05-17T17:16:38;20.40;99.90
41168;DHT22;26906;45.658;9.272;2023-05-17T17:19:04;20.30;99.90
41168;DHT22;26906;45.658;9.272;2023-05-17T17:21:30;20.40;99.90
41168;DHT22;26906;45.658;9.272;2023-05-17T17:24:02;20.30;99.90
41168;DHT22;26906;45.658;9.272;2023-05-17T17:26:30;20.40;99.90
41168;DHT22;26906;45.658;9.272;2023-05-17T17:28:55;20.30;99.90
41168;DHT22;26906;45.658;9.272;2023-05-17T17:31:23;20.30;99.90
41168;DHT22;26906;45.658;9.272;2023-05-17T17:33:50;20.30;99.90
41168;DHT22;26906;45.658;9.272;2023-05-17T17:36:15;20.20;99.90
41168;DHT22;26906;45.658;9.272;2023-05-17T17:38:41;20.20;99.90
41168;DHT22;26906;45.658;9.272;2023-05-17T17:41:07;20.20;99.90
41168;DHT22;26906;45.658;9.272;2023-05-17T17:43:34;20.20;99.90
41168;DHT22;26906;45.658;9.272;2023-05-17T17:46:01;20.20;99.90
41168;DHT22;26906;45.658;9.272;2023-05-17T17:48:27;20.10;99.90
41168;DHT22;26906;45.658;9.272;2023-05-17T17:50:53;20.20;99.90
41168;DHT22;26906;45.658;9.272;2023-05-17T17:53:18;20.10;99.90
41168;DHT22;26906;45.658;9.272;2023-05-17T17:55:44;20.10;99.90
41168;DHT22;26906;45.658;9.272;2023-05-17T17:58:10;20.00;99.90
41168;DHT22;26906;45.658;9.272;2023-05-17T18:00:35;20.00;99.90
41168;DHT22;26906;45.658;9.272;2023-05-17T18:03:01;20.10;99.90
41168;DHT22;26906;45.658;9.272;2023-05-17T18:05:27;20.10;99.90
41168;DHT22;26906;45.658;9.272;2023-05-17T18:07:53;20.00;99.90
41168;DHT22;26906;45.658;9.272;2023-05-17T18:10:18;20.00;99.90
41168;DHT22;26906;45.658;9.272;2023-05-17T18:12:44;19.90;99.90
41168;DHT22;26906;45.658;9.272;2023-05-17T18:15:10;19.90;99.90
41168;DHT22;26906;45.658;9.272;2023-05-17T18:17:37;19.80;99.90
41168;DHT22;26906;45.658;9.272;2023-05-17T18:20:03;19.70;99.90
41168;DHT22;26906;45.658;9.272;2023-05-17T18:22:31;19.70;99.90
41168;DHT22;26906;45.658;9.272;2023-05-17T18:24:57;19.70;99.90
41168;DHT22;26906;45.658;9.272;2023-05-17T18:27:23;19.60;99.90
41168;DHT22;26906;45.658;9.272;2023-05-17T18:29:49;19.50;99.90
41168;DHT22;26906;45.658;9.272;2023-05-17T18:32:14;19.50;99.90
41168;DHT22;26906;45.658;9.272;2023-05-17T18:34:40;19.50;99.90
41168;DHT22;26906;45.658;9.272;2023-05-17T18:37:08;19.60;99.90
41168;DHT22;26906;45.658;9.272;2023-05-17T18:44:51;19.40;99.90
41168;DHT22;26906;45.658;9.272;2023-05-17T18:47:16;19.40;99.90
41168;DHT22;26906;45.658;9.272;2023-05-17T18:49:42;19.30;99.90
41168;DHT22;26906;45.658;9.272;2023-05-17T18:52:11;19.20;99.90
41168;DHT22;26906;45.658;9.272;2023-05-17T18:54:38;19.10;99.90
41168;DHT22;26906;45.658;9.272;2023-05-17T18:57:03;19.00;99.90
41168;DHT22;26906;45.658;9.272;2023-05-17T18:59:30;19.00;99.90
41168;DHT22;26906;45.658;9.272;2023-05-17T19:01:56;19.00;99.90
41168;DHT22;26906;45.658;9.272;2023-05-17T19:04:23;19.00;99.90
41168;DHT22;26906;45.658;9.272;2023-05-17T19:06:48;19.00;99.90
41168;DHT22;26906;45.658;9.272;2023-05-17T19:09:15;18.90;99.90
41168;DHT22;26906;45.658;9.272;2023-05-17T19:11:41;18.80;99.90
41168;DHT22;26906;45.658;9.272;2023-05-17T19:14:07;18.90;99.90
41168;DHT22;26906;45.658;9.272;2023-05-17T19:16:32;18.90;99.90
41168;DHT22;26906;45.658;9.272;2023-05-17T19:18:58;18.90;99.90
41168;DHT22;26906;45.658;9.272;2023-05-17T19:21:24;18.90;99.90
41168;DHT22;26906;45.658;9.272;2023-05-17T19:23:50;18.80;99.90
41168;DHT22;26906;45.658;9.272;2023-05-17T19:26:16;18.90;99.90
41168;DHT22;26906;45.658;9.272;2023-05-17T19:28:42;18.90;99.90
41168;DHT22;26906;45.658;9.272;2023-05-17T19:31:07;18.90;99.90
41168;DHT22;26906;45.658;9.272;2023-05-17T19:33:33;18.90;99.90
41168;DHT22;26906;45.658;9.272;2023-05-17T19:36:03;19.00;99.90
41168;DHT22;26906;45.658;9.272;2023-05-17T19:38:30;18.90;99.90
41168;DHT22;26906;45.658;9.272;2023-05-17T19:40:58;19.00;99.90
41168;DHT22;26906;45.658;9.272;2023-05-17T19:43:24;19.00;99.90
41168;DHT22;26906;45.658;9.272;2023-05-17T19:45:51;18.80;99.90
41168;DHT22;26906;45.658;9.272;2023-05-17T19:48:18;18.70;99.90
41168;DHT22;26906;45.658;9.272;2023-05-17T19:50:43;18.70;99.90
41168;DHT22;26906;45.658;9.272;2023-05-17T19:53:09;18.80;99.90
41168;DHT22;26906;45.658;9.272;2023-05-17T19:55:39;18.90;99.90
41168;DHT22;26906;45.658;9.272;2023-05-17T19:58:07;18.80;99.90
41168;DHT22;26906;45.658;9.272;2023-05-17T20:00:35;18.70;99.90
41168;DHT22;26906;45.658;9.272;2023-05-17T20:03:03;18.70;99.90
41168;DHT22;26906;45.658;9.272;2023-05-17T20:05:29;18.70;99.90
41168;DHT22;26906;45.658;9.272;2023-05-17T20:07:55;18.60;99.90
41168;DHT22;26906;45.658;9.272;2023-05-17T20:10:21;18.70;99.90
